Time;durP1;ratioP1;P1;durP2;ratioP2;P2;SDS_P1;SDS_P2;PMS_P1;PMS_P2;Temp;Humidity;BMP_temperature;BMP_pressure;BME280_temperature;BME280_humidity;BME280_pressure;Samples;Min_cycle;Max_cycle;Signal;HPM_P1;HPM_P2
2021/10/29 00:01:33;;;;;;;;;9.00;8.00;;;;;;;;5036870;28;9587;-81
2021/10/29 00:04:02;;;;;;;;;9.50;9.50;;;;;;;;5043116;28;9681;-77
2021/10/29 00:06:29;;;;;;;;;11.75;11.75;;;;;;;;5042954;28;9663;-79
2021/10/29 00:08:57;;;;;;;;;14.25;10.00;;;;;;;;5043256;28;9719;-77
2021/10/29 00:11:24;;;;;;;;;10.00;10.00;;;;;;;;5042267;28;9781;-80
2021/10/29 00:13:52;;;;;;;;;8.25;8.25;;;;;;;;5041543;28;10494;-77
2021/10/29 00:16:19;;;;;;;;;14.75;11.75;;;;;;;;5035568;28;9652;-81
2021/10/29 00:18:47;;;;;;;;;10.50;8.75;;;;;;;;5043121;28;9813;-82
2021/10/29 00:21:16;;;;;;;;;13.00;11.75;;;;;;;;5044034;28;9806;-77
2021/10/29 00:23:43;;;;;;;;;10.25;9.75;;;;;;;;5045036;28;9643;-82
2021/10/29 00:26:11;;;;;;;;;9.25;8.75;;;;;;;;5047275;28;10616;-83
2021/10/29 00:28:38;;;;;;;;;12.00;12.00;;;;;;;;5046482;28;9793;-77
2021/10/29 00:31:05;;;;;;;;;11.25;11.25;;;;;;;;5045296;28;9741;-79
2021/10/29 00:33:32;;;;;;;;;8.50;8.00;;;;;;;;5046119;28;9854;-81
2021/10/29 00:36:00;;;;;;;;;11.00;9.00;;;;;;;;5045197;28;9762;-82
2021/10/29 00:38:28;;;;;;;;;7.75;7.75;;;;;;;;5044890;28;9860;-80
2021/10/29 00:40:56;;;;;;;;;12.25;11.50;;;;;;;;5043583;28;10402;-81
2021/10/29 00:43:23;;;;;;;;;8.75;8.75;;;;;;;;5041855;28;9730;-78
2021/10/29 00:45:51;;;;;;;;;12.75;9.25;;;;;;;;5043069;28;10075;-82
2021/10/29 00:48:18;;;;;;;;;12.75;11.00;;;;;;;;5046098;28;9734;-79
2021/10/29 00:50:47;;;;;;;;;12.25;9.25;;;;;;;;5042791;28;9932;-79
2021/10/29 00:53:14;;;;;;;;;8.00;8.00;;;;;;;;5034573;28;9775;-79
2021/10/29 00:55:43;;;;;;;;;10.75;9.50;;;;;;;;5042700;28;9818;-79
2021/10/29 00:58:10;;;;;;;;;9.00;9.00;;;;;;;;5044199;28;9821;-78
2021/10/29 01:00:38;;;;;;;;;11.00;11.00;;;;;;;;5044315;28;9958;-79
2021/10/29 01:03:05;;;;;;;;;9.00;9.00;;;;;;;;5041350;28;9734;-80
2021/10/29 01:05:32;;;;;;;;;10.50;7.75;;;;;;;;5046677;28;9905;-79
2021/10/29 01:08:00;;;;;;;;;8.75;8.75;;;;;;;;5043576;28;9905;-78
2021/10/29 01:10:30;;;;;;;;;12.00;9.00;;;;;;;;5062972;28;9759;-78
2021/10/29 01:12:59;;;;;;;;;10.50;10.50;;;;;;;;5039022;28;9809;-81
2021/10/29 01:15:27;;;;;;;;;11.00;10.25;;;;;;;;5035832;28;9879;-80
2021/10/29 01:17:54;;;;;;;;;11.00;11.00;;;;;;;;5040326;28;9793;-80
2021/10/29 01:20:23;;;;;;;;;8.50;8.50;;;;;;;;5032039;28;9869;-78
2021/10/29 01:22:51;;;;;;;;;11.25;11.25;;;;;;;;5042656;28;9832;-79
2021/10/29 01:25:19;;;;;;;;;9.00;9.00;;;;;;;;5040782;28;9948;-82
2021/10/29 01:27:46;;;;;;;;;8.25;8.25;;;;;;;;5039168;28;9959;-82
2021/10/29 01:30:14;;;;;;;;;8.00;8.00;;;;;;;;5040633;28;10207;-80
2021/10/29 01:32:42;;;;;;;;;7.50;7.50;;;;;;;;5030756;28;9803;-77
2021/10/29 01:35:11;;;;;;;;;6.00;6.00;;;;;;;;5037513;28;9933;-79
2021/10/29 01:37:39;;;;;;;;;11.50;11.50;;;;;;;;5039877;28;9904;-78
2021/10/29 01:40:09;;;;;;;;;13.00;11.00;;;;;;;;5045336;28;9789;-81
2021/10/29 01:42:37;;;;;;;;;9.25;9.25;;;;;;;;5035366;28;9876;-81
2021/10/29 01:45:05;;;;;;;;;12.25;12.25;;;;;;;;5044866;28;9987;-81
2021/10/29 01:47:33;;;;;;;;;10.25;8.25;;;;;;;;5033449;28;9870;-81
2021/10/29 01:50:01;;;;;;;;;6.25;6.25;;;;;;;;5044623;28;10742;-82
2021/10/29 01:52:28;;;;;;;;;11.25;9.50;;;;;;;;5036789;28;9892;-82
2021/10/29 01:54:57;;;;;;;;;9.25;9.25;;;;;;;;5045475;28;10753;-78
2021/10/29 01:57:25;;;;;;;;;8.50;8.50;;;;;;;;5045923;28;9869;-81
2021/10/29 01:59:53;;;;;;;;;9.25;7.25;;;;;;;;5044287;28;9940;-82
2021/10/29 02:02:20;;;;;;;;;15.00;9.00;;;;;;;;5042367;28;9860;-78
2021/10/29 02:04:47;;;;;;;;;14.25;10.75;;;;;;;;5044044;28;10816;-79
2021/10/29 02:07:15;;;;;;;;;9.50;8.00;;;;;;;;5044320;28;10010;-77
2021/10/29 02:09:42;;;;;;;;;8.50;8.50;;;;;;;;5045835;28;9887;-77
2021/10/29 02:12:11;;;;;;;;;8.50;8.00;;;;;;;;5044599;28;9922;-81
2021/10/29 02:14:38;;;;;;;;;8.75;8.75;;;;;;;;5045155;28;9892;-81
2021/10/29 02:17:06;;;;;;;;;12.00;9.00;;;;;;;;5044983;28;9794;-81
2021/10/29 02:19:33;;;;;;;;;8.75;8.75;;;;;;;;5045021;28;10613;-80
2021/10/29 02:22:00;;;;;;;;;9.25;9.25;;;;;;;;5043011;28;10048;-79
2021/10/29 02:24:28;;;;;;;;;10.25;10.25;;;;;;;;5042622;28;9878;-77
2021/10/29 02:26:56;;;;;;;;;3.00;3.00;;;;;;;;5045463;28;9959;-77
2021/10/29 02:29:25;;;;;;;;;11.75;8.75;;;;;;;;5042389;28;10474;-78
2021/10/29 02:31:52;;;;;;;;;11.25;9.75;;;;;;;;5037846;28;9660;-79
2021/10/29 02:34:19;;;;;;;;;9.75;9.00;;;;;;;;5042042;28;10718;-78
2021/10/29 02:36:47;;;;;;;;;7.50;7.50;;;;;;;;5045000;28;9818;-78
2021/10/29 02:39:14;;;;;;;;;11.50;9.75;;;;;;;;5036671;28;10033;-80
2021/10/29 02:41:41;;;;;;;;;10.00;10.00;;;;;;;;5042771;28;9869;-80
2021/10/29 02:44:09;;;;;;;;;10.75;8.00;;;;;;;;5044082;28;10693;-78
2021/10/29 02:46:38;;;;;;;;;11.50;9.25;;;;;;;;5044086;28;9791;-78
2021/10/29 02:49:05;;;;;;;;;11.25;11.25;;;;;;;;5043704;28;9898;-78
2021/10/29 02:51:33;;;;;;;;;13.25;9.50;;;;;;;;5029676;28;9807;-78
2021/10/29 02:54:00;;;;;;;;;8.00;8.00;;;;;;;;5042599;28;9859;-78
2021/10/29 02:56:29;;;;;;;;;12.25;12.25;;;;;;;;5042361;28;9653;-81
2021/10/29 02:58:56;;;;;;;;;13.00;9.00;;;;;;;;5043835;28;9872;-80
2021/10/29 03:01:24;;;;;;;;;7.25;7.25;;;;;;;;5043147;28;9867;-82
2021/10/29 03:03:52;;;;;;;;;12.00;9.75;;;;;;;;5043513;28;9728;-80
2021/10/29 03:06:20;;;;;;;;;7.75;7.75;;;;;;;;5036602;28;9844;-81
2021/10/29 03:08:47;;;;;;;;;11.50;11.50;;;;;;;;5034026;28;9839;-82
2021/10/29 03:11:15;;;;;;;;;10.00;10.00;;;;;;;;5041514;28;9726;-77
2021/10/29 03:13:42;;;;;;;;;8.25;8.25;;;;;;;;5041494;28;9720;-77
2021/10/29 03:16:09;;;;;;;;;9.50;8.00;;;;;;;;5038231;28;10588;-77
2021/10/29 03:18:37;;;;;;;;;8.25;8.25;;;;;;;;5040245;28;10699;-78
2021/10/29 03:21:06;;;;;;;;;6.00;6.00;;;;;;;;5043226;28;9820;-82
2021/10/29 03:23:33;;;;;;;;;9.75;8.00;;;;;;;;5044672;28;9788;-81
2021/10/29 03:26:00;;;;;;;;;9.00;9.00;;;;;;;;5041921;28;9896;-82
2021/10/29 03:28:28;;;;;;;;;6.00;6.00;;;;;;;;5036017;28;9737;-81
2021/10/29 03:30:55;;;;;;;;;9.00;9.00;;;;;;;;5042686;28;9588;-77
2021/10/29 03:33:22;;;;;;;;;9.50;9.50;;;;;;;;5043788;28;9767;-76
2021/10/29 03:35:50;;;;;;;;;12.50;9.50;;;;;;;;5039344;28;9705;-80
2021/10/29 03:41:06;;;;;;;;;9.25;9.25;;;;;;;;5036460;28;9759;-81
2021/10/29 03:43:38;;;;;;;;;9.50;9.50;;;;;;;;5042533;28;9714;-77
2021/10/29 03:46:09;;;;;;;;;10.25;10.25;;;;;;;;5044313;28;9922;-77
2021/10/29 03:48:43;;;;;;;;;9.75;9.75;;;;;;;;5034085;28;10891;-81
2021/10/29 03:51:15;;;;;;;;;8.00;8.00;;;;;;;;5042757;28;9887;-78
2021/10/29 03:53:51;;;;;;;;;9.00;7.75;;;;;;;;5042089;28;9769;-77
2021/10/29 03:56:19;;;;;;;;;9.00;8.00;;;;;;;;5039759;28;9648;-81
2021/10/29 03:58:47;;;;;;;;;7.50;7.50;;;;;;;;5042633;28;10665;-81
2021/10/29 04:01:15;;;;;;;;;9.00;7.50;;;;;;;;5040658;28;9823;-80
2021/10/29 04:03:42;;;;;;;;;7.75;7.75;;;;;;;;5025609;28;9797;-81
2021/10/29 04:06:10;;;;;;;;;8.00;6.25;;;;;;;;5042546;28;9964;-80
2021/10/29 04:08:37;;;;;;;;;7.00;6.00;;;;;;;;5036176;28;10032;-79
2021/10/29 04:11:06;;;;;;;;;8.00;8.00;;;;;;;;5043650;28;9941;-80
2021/10/29 04:13:37;;;;;;;;;12.00;8.00;;;;;;;;5035864;28;9744;-79
2021/10/29 04:16:05;;;;;;;;;8.75;8.75;;;;;;;;5039107;28;9791;-79
2021/10/29 04:18:35;;;;;;;;;9.00;9.00;;;;;;;;5042578;28;9905;-79
2021/10/29 04:21:02;;;;;;;;;8.00;8.00;;;;;;;;5035531;28;9789;-80
2021/10/29 04:23:30;;;;;;;;;11.00;9.25;;;;;;;;5041376;28;9877;-80
2021/10/29 04:25:57;;;;;;;;;10.25;8.00;;;;;;;;5038612;28;9859;-77
2021/10/29 04:28:28;;;;;;;;;8.00;6.00;;;;;;;;5042838;28;9892;-77
2021/10/29 04:30:56;;;;;;;;;9.75;9.00;;;;;;;;5041643;28;9736;-77
2021/10/29 04:33:23;;;;;;;;;14.00;10.00;;;;;;;;5042663;28;9882;-77
2021/10/29 04:35:53;;;;;;;;;7.50;7.50;;;;;;;;5041044;28;10006;-75
2021/10/29 04:38:21;;;;;;;;;12.75;9.50;;;;;;;;5043641;28;9926;-77
2021/10/29 04:40:50;;;;;;;;;12.00;9.50;;;;;;;;5042721;28;10655;-76
2021/10/29 04:43:18;;;;;;;;;6.00;6.00;;;;;;;;5030604;28;9979;-79
2021/10/29 04:45:47;;;;;;;;;7.50;7.50;;;;;;;;5042798;28;9771;-79
2021/10/29 04:48:14;;;;;;;;;7.75;7.75;;;;;;;;5042987;28;9974;-79
2021/10/29 04:50:41;;;;;;;;;8.00;6.25;;;;;;;;5041129;28;9719;-77
2021/10/29 04:53:10;;;;;;;;;6.00;6.00;;;;;;;;5038505;28;9844;-77
2021/10/29 04:55:38;;;;;;;;;7.75;7.75;;;;;;;;5042702;28;9781;-78
2021/10/29 04:58:06;;;;;;;;;7.75;7.75;;;;;;;;5028328;28;9896;-77
2021/10/29 05:00:34;;;;;;;;;13.75;10.25;;;;;;;;5042258;28;10089;-77
2021/10/29 05:03:06;;;;;;;;;13.00;10.25;;;;;;;;5042923;28;9961;-77
2021/10/29 05:05:34;;;;;;;;;7.00;7.00;;;;;;;;5040152;28;9783;-76
2021/10/29 05:08:02;;;;;;;;;9.25;7.75;;;;;;;;5044796;28;9964;-80
2021/10/29 05:10:29;;;;;;;;;8.75;8.00;;;;;;;;5076544;28;9927;-77
2021/10/29 05:12:57;;;;;;;;;9.50;7.50;;;;;;;;5043607;28;9931;-79
2021/10/29 05:15:25;;;;;;;;;10.50;8.25;;;;;;;;5044279;28;9802;-76
2021/10/29 05:17:54;;;;;;;;;9.50;9.25;;;;;;;;5045519;28;9784;-78
2021/10/29 05:20:23;;;;;;;;;8.00;8.00;;;;;;;;5046011;28;9802;-77
2021/10/29 05:22:51;;;;;;;;;8.25;7.75;;;;;;;;5044152;28;9869;-79
2021/10/29 05:25:18;;;;;;;;;8.25;8.25;;;;;;;;5039491;28;9712;-83
2021/10/29 05:27:45;;;;;;;;;7.50;7.50;;;;;;;;5039843;28;9815;-83
2021/10/29 05:30:13;;;;;;;;;9.00;8.75;;;;;;;;5040937;28;9914;-81
2021/10/29 05:32:41;;;;;;;;;6.25;6.25;;;;;;;;5041913;28;9911;-82
2021/10/29 05:35:10;;;;;;;;;7.50;7.50;;;;;;;;5045733;28;9775;-81
2021/10/29 05:37:39;;;;;;;;;8.25;7.00;;;;;;;;5045070;28;9603;-81
2021/10/29 05:40:08;;;;;;;;;10.75;8.75;;;;;;;;5044284;28;10613;-82
2021/10/29 05:42:36;;;;;;;;;10.25;10.25;;;;;;;;5045453;28;9794;-83
2021/10/29 05:45:05;;;;;;;;;7.25;7.25;;;;;;;;5044296;28;9705;-83
2021/10/29 05:47:32;;;;;;;;;9.75;7.75;;;;;;;;5045874;28;9724;-83
2021/10/29 05:50:00;;;;;;;;;8.00;8.00;;;;;;;;5043750;28;9701;-83
2021/10/29 05:52:29;;;;;;;;;12.75;8.00;;;;;;;;5045122;28;9789;-83
2021/10/29 05:55:14;;;;;;;;;9.00;9.00;;;;;;;;5043282;28;9689;-82
2021/10/29 05:57:42;;;;;;;;;8.00;8.00;;;;;;;;5042035;28;9708;-82
2021/10/29 06:00:11;;;;;;;;;8.25;8.25;;;;;;;;5044229;28;9693;-82
2021/10/29 06:02:39;;;;;;;;;9.00;9.00;;;;;;;;5043120;28;10309;-81
2021/10/29 06:05:07;;;;;;;;;9.25;9.25;;;;;;;;5044059;28;9780;-82
2021/10/29 06:07:35;;;;;;;;;9.50;7.50;;;;;;;;5043228;28;9733;-83
2021/10/29 06:10:04;;;;;;;;;10.00;10.00;;;;;;;;5044536;28;9932;-82
2021/10/29 06:12:33;;;;;;;;;11.75;8.75;;;;;;;;5043181;28;9727;-81
2021/10/29 06:15:01;;;;;;;;;7.25;7.25;;;;;;;;5042989;28;9740;-81
2021/10/29 06:17:30;;;;;;;;;10.50;9.00;;;;;;;;5044527;28;9771;-83
2021/10/29 06:19:57;;;;;;;;;7.25;7.25;;;;;;;;5043716;28;9712;-82
2021/10/29 06:22:26;;;;;;;;;7.25;7.25;;;;;;;;5043601;28;10415;-83
2021/10/29 06:24:54;;;;;;;;;10.75;8.00;;;;;;;;5043698;28;9731;-82
2021/10/29 06:30:24;;;;;;;;;9.75;9.75;;;;;;;;5044621;28;9629;-83
2021/10/29 06:32:51;;;;;;;;;2.25;1.25;;;;;;;;5042016;28;9786;-84
2021/10/29 06:35:19;;;;;;;;;8.00;8.00;;;;;;;;5044250;28;10588;-82
2021/10/29 06:37:46;;;;;;;;;3.00;3.00;;;;;;;;5043439;28;9860;-83
2021/10/29 06:40:15;;;;;;;;;9.50;8.50;;;;;;;;5044924;28;9804;-82
2021/10/29 06:42:49;;;;;;;;;9.25;9.25;;;;;;;;5041591;28;9780;-79
2021/10/29 06:45:35;;;;;;;;;8.50;7.00;;;;;;;;5039006;28;9724;-77
2021/10/29 06:48:16;;;;;;;;;8.25;8.25;;;;;;;;5027492;28;9823;-80
2021/10/29 06:59:22;;;;;;;;;10.00;10.00;;;;;;;;5042138;28;9689;-75
2021/10/29 07:01:54;;;;;;;;;9.00;9.00;;;;;;;;5040001;28;9490;-75
2021/10/29 07:40:20;;;;;;;;;10.00;8.67;;;;;;;;5035696;28;9245;-75
2021/10/29 07:42:54;;;;;;;;;9.00;8.00;;;;;;;;5038326;28;10350;-75
2021/10/29 07:45:23;;;;;;;;;9.67;9.67;;;;;;;;5040872;28;9017;-74
2021/10/29 07:47:52;;;;;;;;;8.67;7.00;;;;;;;;5041890;28;9033;-76
2021/10/29 07:50:20;;;;;;;;;7.00;7.00;;;;;;;;5042814;28;9306;-76
2021/10/29 07:52:49;;;;;;;;;8.00;8.00;;;;;;;;5041868;28;8971;-77
2021/10/29 07:55:20;;;;;;;;;4.00;4.00;;;;;;;;5042147;28;9111;-77
2021/10/29 07:57:47;;;;;;;;;7.25;5.25;;;;;;;;5042689;28;8919;-77
2021/10/29 08:00:16;;;;;;;;;5.50;5.50;;;;;;;;5041075;28;8877;-76
2021/10/29 08:02:44;;;;;;;;;10.50;9.25;;;;;;;;5042329;28;8967;-76
2021/10/29 08:05:12;;;;;;;;;9.00;9.00;;;;;;;;5038137;28;8887;-75
2021/10/29 08:07:40;;;;;;;;;8.25;4.25;;;;;;;;5041344;28;8865;-75
2021/10/29 08:10:10;;;;;;;;;6.50;6.50;;;;;;;;5037054;28;8932;-80
2021/10/29 08:12:38;;;;;;;;;6.00;6.00;;;;;;;;5038321;28;8902;-74
2021/10/29 08:15:07;;;;;;;;;4.00;4.00;;;;;;;;5041593;28;8849;-75
2021/10/29 08:17:36;;;;;;;;;5.00;5.00;;;;;;;;5039849;28;8919;-75
2021/10/29 08:20:05;;;;;;;;;7.00;7.00;;;;;;;;5041860;28;9718;-75
2021/10/29 08:22:35;;;;;;;;;8.50;6.00;;;;;;;;5040156;28;8877;-75
2021/10/29 08:25:02;;;;;;;;;5.00;5.00;;;;;;;;5042144;28;8873;-76
2021/10/29 08:27:29;;;;;;;;;4.50;4.50;;;;;;;;5040315;28;8885;-78
2021/10/29 08:29:57;;;;;;;;;5.00;5.00;;;;;;;;5036984;28;8933;-76
2021/10/29 08:32:24;;;;;;;;;7.25;5.00;;;;;;;;5040789;28;8841;-75
2021/10/29 08:34:51;;;;;;;;;5.75;5.75;;;;;;;;5036829;28;9700;-76
2021/10/29 08:37:19;;;;;;;;;9.25;6.25;;;;;;;;5036268;28;9675;-76
2021/10/29 08:39:47;;;;;;;;;6.00;6.00;;;;;;;;5040045;28;8911;-76
2021/10/29 08:42:15;;;;;;;;;5.00;5.00;;;;;;;;5041155;28;8995;-76
2021/10/29 08:44:43;;;;;;;;;5.00;5.00;;;;;;;;5043771;28;8974;-75
2021/10/29 08:47:10;;;;;;;;;5.00;5.00;;;;;;;;5045605;28;9340;-76
2021/10/29 08:49:37;;;;;;;;;4.50;4.50;;;;;;;;5039446;28;8857;-75
2021/10/29 08:52:07;;;;;;;;;5.00;5.00;;;;;;;;5038805;28;8897;-78
2021/10/29 08:54:34;;;;;;;;;6.00;6.00;;;;;;;;5041771;28;8881;-74
2021/10/29 08:57:03;;;;;;;;;4.75;4.75;;;;;;;;5041473;28;8903;-75
2021/10/29 08:59:32;;;;;;;;;5.50;5.50;;;;;;;;5044273;28;8865;-75
2021/10/29 09:02:04;;;;;;;;;5.25;5.25;;;;;;;;5068669;28;8808;-76
2021/10/29 09:04:39;;;;;;;;;10.25;7.25;;;;;;;;5045935;28;8869;-76
2021/10/29 09:07:22;;;;;;;;;5.75;5.75;;;;;;;;5046375;28;8896;-77
2021/10/29 09:32:24;;;;;;;;;3.25;3.25;;;;;;;;5045063;28;8817;-77
2021/10/29 09:35:04;;;;;;;;;3.50;3.50;;;;;;;;5028000;28;8873;-77
2021/10/29 09:37:36;;;;;;;;;5.75;5.25;;;;;;;;5045905;28;9622;-76
2021/10/29 09:40:09;;;;;;;;;4.25;4.25;;;;;;;;5043960;28;8869;-76
2021/10/29 09:42:39;;;;;;;;;4.00;4.00;;;;;;;;5045258;28;8868;-77
2021/10/29 09:45:17;;;;;;;;;6.50;5.00;;;;;;;;5044192;28;8861;-76
2021/10/29 09:47:51;;;;;;;;;6.25;6.25;;;;;;;;5044887;28;8880;-77
2021/10/29 09:50:25;;;;;;;;;5.25;5.00;;;;;;;;5045236;28;8857;-76
2021/10/29 09:53:06;;;;;;;;;4.00;4.00;;;;;;;;5042101;28;8857;-76
2021/10/29 09:58:18;;;;;;;;;6.50;5.00;;;;;;;;5043604;28;8872;-76
2021/10/29 10:00:47;;;;;;;;;3.75;3.25;;;;;;;;5041937;28;8817;-77
2021/10/29 10:03:16;;;;;;;;;3.00;3.00;;;;;;;;5044596;28;8861;-76
2021/10/29 10:05:44;;;;;;;;;4.00;4.00;;;;;;;;5041681;28;8865;-76
2021/10/29 10:08:20;;;;;;;;;5.50;5.50;;;;;;;;5045060;28;8895;-77
2021/10/29 10:10:51;;;;;;;;;6.50;4.25;;;;;;;;5043727;28;8865;-79
2021/10/29 10:13:20;;;;;;;;;3.50;3.50;;;;;;;;5044825;28;8939;-75
2021/10/29 10:15:52;;;;;;;;;4.25;4.25;;;;;;;;5045011;28;8942;-76
2021/10/29 10:18:20;;;;;;;;;6.00;5.25;;;;;;;;5045894;28;8960;-76
2021/10/29 10:20:49;;;;;;;;;5.00;5.00;;;;;;;;5047780;28;8861;-77
2021/10/29 10:23:20;;;;;;;;;5.00;2.25;;;;;;;;5045128;28;8866;-77
2021/10/29 10:26:07;;;;;;;;;5.00;4.50;;;;;;;;5043167;28;8922;-76
2021/10/29 10:43:35;;;;;;;;;4.50;3.75;;;;;;;;5025316;28;9346;-77
2021/10/29 10:46:11;;;;;;;;;3.00;3.00;;;;;;;;5040303;28;8946;-75
2021/10/29 10:48:47;;;;;;;;;4.00;4.00;;;;;;;;5049928;28;8889;-79
2021/10/29 10:51:35;;;;;;;;;4.25;4.25;;;;;;;;5044044;28;8914;-77
2021/10/29 10:54:07;;;;;;;;;3.50;3.00;;;;;;;;5040531;28;8865;-78
2021/10/29 10:59:48;;;;;;;;;4.75;4.75;;;;;;;;5036062;28;8954;-75
2021/10/29 11:11:15;;;;;;;;;4.50;4.50;;;;;;;;5043217;28;8930;-77
2021/10/29 11:13:53;;;;;;;;;4.50;3.00;;;;;;;;5038283;28;8933;-76
2021/10/29 11:16:35;;;;;;;;;6.00;6.00;;;;;;;;5036860;28;8980;-76
2021/10/29 11:19:07;;;;;;;;;6.00;5.25;;;;;;;;5042727;28;8966;-75
2021/10/29 11:21:37;;;;;;;;;1.00;1.00;;;;;;;;5040659;28;8885;-76
2021/10/29 11:24:07;;;;;;;;;5.75;5.25;;;;;;;;5038208;28;8873;-76
2021/10/29 11:26:39;;;;;;;;;5.75;5.75;;;;;;;;5041684;28;8857;-77
2021/10/29 11:29:07;;;;;;;;;5.00;5.00;;;;;;;;5041915;28;8966;-76
2021/10/29 11:31:37;;;;;;;;;4.75;4.75;;;;;;;;5042181;28;8858;-77
2021/10/29 11:34:06;;;;;;;;;5.00;5.00;;;;;;;;5035049;28;8977;-76
2021/10/29 11:36:36;;;;;;;;;5.50;5.50;;;;;;;;5042748;28;8869;-79
2021/10/29 11:39:06;;;;;;;;;6.50;5.00;;;;;;;;5043642;28;8942;-76
2021/10/29 11:41:35;;;;;;;;;6.75;6.75;;;;;;;;5040332;28;8963;-76
2021/10/29 11:44:04;;;;;;;;;7.25;5.25;;;;;;;;5043259;28;9627;-77
2021/10/29 11:46:32;;;;;;;;;5.25;5.25;;;;;;;;5038862;28;8881;-77
2021/10/29 11:49:03;;;;;;;;;8.25;7.00;;;;;;;;5043855;28;10286;-76
2021/10/29 11:51:32;;;;;;;;;9.00;9.00;;;;;;;;5042460;28;8870;-76
2021/10/29 11:54:06;;;;;;;;;7.25;7.25;;;;;;;;5043072;28;8885;-77
2021/10/29 11:56:38;;;;;;;;;9.50;7.75;;;;;;;;5043132;28;8857;-77
2021/10/29 12:01:56;;;;;;;;;10.00;10.00;;;;;;;;5028926;28;9556;-76
2021/10/29 12:07:14;;;;;;;;;8.00;8.00;;;;;;;;5042536;28;8857;-74
2021/10/29 12:09:44;;;;;;;;;8.00;8.00;;;;;;;;5044118;28;9647;-76
2021/10/29 12:12:13;;;;;;;;;10.50;6.50;;;;;;;;5034837;28;9028;-76
2021/10/29 12:14:44;;;;;;;;;11.00;11.00;;;;;;;;5041691;28;8877;-76
2021/10/29 12:17:16;;;;;;;;;9.75;9.00;;;;;;;;5044349;28;8873;-75
2021/10/29 12:19:49;;;;;;;;;11.25;9.75;;;;;;;;5048083;28;8858;-77
2021/10/29 12:25:17;;;;;;;;;9.75;8.25;;;;;;;;5045776;28;9014;-76
2021/10/29 12:27:48;;;;;;;;;7.75;5.75;;;;;;;;5040157;28;8880;-77
2021/10/29 12:30:26;;;;;;;;;8.75;8.75;;;;;;;;5045199;28;8877;-77
2021/10/29 13:01:31;;;;;;;;;9.00;9.00;;;;;;;;5045559;28;8798;-76
2021/10/29 13:04:01;;;;;;;;;10.25;10.25;;;;;;;;5045611;28;9027;-77
2021/10/29 13:06:32;;;;;;;;;9.50;8.25;;;;;;;;5047241;28;8881;-78
2021/10/29 13:09:02;;;;;;;;;10.00;10.00;;;;;;;;5044968;28;8897;-77
2021/10/29 13:11:37;;;;;;;;;9.75;7.75;;;;;;;;5046411;28;8857;-78
2021/10/29 13:14:07;;;;;;;;;6.25;6.25;;;;;;;;5045078;28;8889;-79
2021/10/29 13:16:34;;;;;;;;;6.50;6.50;;;;;;;;5046118;28;9007;-78
2021/10/29 13:19:31;;;;;;;;;6.75;5.50;;;;;;;;5045882;28;8862;-79
2021/10/29 13:25:11;;;;;;;;;4.50;4.50;;;;;;;;5043048;28;8884;-79
2021/10/29 13:36:14;;;;;;;;;14.50;11.50;;;;;;;;5003252;28;8838;-78
2021/10/29 13:52:40;;;;;;;;;9.75;9.50;;;;;;;;5045586;28;9615;-78
2021/10/29 14:04:10;;;;;;;;;9.50;9.50;;;;;;;;5046161;28;9713;-78
2021/10/29 14:29:00;;;;;;;;;10.00;10.00;;;;;;;;5000330;28;8878;-81
2021/10/29 14:31:31;;;;;;;;;10.00;7.75;;;;;;;;5039110;28;8813;-83
2021/10/29 14:34:03;;;;;;;;;7.50;7.50;;;;;;;;5030031;28;8884;-79
2021/10/29 14:36:42;;;;;;;;;9.75;8.75;;;;;;;;5043593;28;8877;-78
2021/10/29 14:39:12;;;;;;;;;5.25;5.25;;;;;;;;5044481;28;9683;-78
2021/10/29 14:41:43;;;;;;;;;9.50;7.75;;;;;;;;5034489;28;9693;-77
2021/10/29 14:44:15;;;;;;;;;4.00;4.00;;;;;;;;5040373;28;9063;-80
2021/10/29 14:46:52;;;;;;;;;6.00;6.00;;;;;;;;5041902;28;8858;-80
2021/10/29 14:49:32;;;;;;;;;6.50;6.50;;;;;;;;5043775;28;8885;-78
2021/10/29 15:03:24;;;;;;;;;8.75;8.75;;;;;;;;5035407;28;8850;-78
2021/10/29 15:25:15;;;;;;;;;14.50;11.25;;;;;;;;5035385;28;8836;-79
2021/10/29 15:30:35;;;;;;;;;10.00;10.00;;;;;;;;5033373;28;8797;-77
2021/10/29 15:44:22;;;;;;;;;8.50;7.75;;;;;;;;5040505;28;8895;-76
2021/10/29 15:46:58;;;;;;;;;11.75;7.75;;;;;;;;5038811;28;8865;-79
2021/10/29 15:49:37;;;;;;;;;10.00;10.00;;;;;;;;5038080;28;8881;-80
2021/10/29 15:52:10;;;;;;;;;10.75;9.25;;;;;;;;5035458;28;8927;-78
2021/10/29 15:54:42;;;;;;;;;12.25;10.75;;;;;;;;5037802;28;9309;-77
2021/10/29 15:57:11;;;;;;;;;8.75;6.25;;;;;;;;5037985;28;8853;-82
2021/10/29 15:59:45;;;;;;;;;8.50;8.50;;;;;;;;5043190;28;8865;-78
2021/10/29 16:18:51;;;;;;;;;10.50;8.50;;;;;;;;5034998;28;8861;-80
2021/10/29 16:21:18;;;;;;;;;7.00;7.00;;;;;;;;5036389;28;8881;-76
2021/10/29 16:23:45;;;;;;;;;9.00;6.25;;;;;;;;5036317;28;8899;-78
2021/10/29 16:26:15;;;;;;;;;12.00;8.50;;;;;;;;5040692;28;9683;-76
2021/10/29 16:28:44;;;;;;;;;7.50;7.50;;;;;;;;5038127;28;8861;-76
2021/10/29 16:31:13;;;;;;;;;21.50;18.25;;;;;;;;5035979;28;8842;-77
2021/10/29 16:33:41;;;;;;;;;10.75;10.75;;;;;;;;5042228;28;8908;-77
2021/10/29 16:36:08;;;;;;;;;8.00;8.00;;;;;;;;5041735;28;8996;-79
2021/10/29 16:38:35;;;;;;;;;10.50;10.00;;;;;;;;5037485;28;8871;-79
2021/10/29 16:41:03;;;;;;;;;10.00;10.00;;;;;;;;5040089;28;8873;-77
2021/10/29 16:43:34;;;;;;;;;10.00;10.00;;;;;;;;5038497;28;8870;-80
2021/10/29 16:46:03;;;;;;;;;8.75;8.75;;;;;;;;5031414;28;9703;-81
2021/10/29 16:48:31;;;;;;;;;10.50;8.50;;;;;;;;5038903;28;8849;-82
2021/10/29 16:50:58;;;;;;;;;9.50;8.00;;;;;;;;5036083;28;8869;-82
2021/10/29 16:53:25;;;;;;;;;12.50;10.00;;;;;;;;5034553;28;8866;-82
2021/10/29 16:55:53;;;;;;;;;10.00;10.00;;;;;;;;5034404;28;8849;-79
2021/10/29 16:58:20;;;;;;;;;11.00;9.00;;;;;;;;5037275;28;8904;-82
2021/10/29 17:00:48;;;;;;;;;9.25;8.50;;;;;;;;5039029;28;8835;-77
2021/10/29 17:03:17;;;;;;;;;8.75;8.75;;;;;;;;5039511;28;8853;-78
2021/10/29 17:05:44;;;;;;;;;7.00;6.50;;;;;;;;5042960;28;8849;-79
2021/10/29 17:08:13;;;;;;;;;9.25;8.25;;;;;;;;5040064;28;8883;-76
2021/10/29 17:10:40;;;;;;;;;12.00;10.00;;;;;;;;5046273;28;8881;-79
2021/10/29 17:13:08;;;;;;;;;11.75;11.00;;;;;;;;5042603;28;9685;-78
2021/10/29 17:15:36;;;;;;;;;15.00;11.25;;;;;;;;5036292;28;8890;-80
2021/10/29 17:18:04;;;;;;;;;12.75;10.00;;;;;;;;5043097;28;8857;-77
2021/10/29 17:20:34;;;;;;;;;9.00;8.75;;;;;;;;5043284;28;8881;-80
2021/10/29 17:23:03;;;;;;;;;10.50;9.50;;;;;;;;5043322;28;9005;-78
2021/10/29 17:25:31;;;;;;;;;9.00;8.25;;;;;;;;5043686;28;8885;-87
2021/10/29 17:27:59;;;;;;;;;10.50;10.50;;;;;;;;5043727;28;8861;-77
2021/10/29 17:30:26;;;;;;;;;8.75;8.25;;;;;;;;5036876;28;8912;-77
2021/10/29 17:32:58;;;;;;;;;9.00;9.00;;;;;;;;5044670;28;8892;-76
2021/10/29 17:35:25;;;;;;;;;6.00;6.00;;;;;;;;5036054;28;8881;-76
2021/10/29 17:37:54;;;;;;;;;10.25;10.25;;;;;;;;5033343;28;8865;-81
2021/10/29 17:40:21;;;;;;;;;10.75;9.75;;;;;;;;5040140;28;8882;-83
2021/10/29 17:42:49;;;;;;;;;9.25;9.25;;;;;;;;5040652;28;8894;-82
2021/10/29 17:45:17;;;;;;;;;12.50;11.00;;;;;;;;5045553;28;9623;-84
2021/10/29 17:47:44;;;;;;;;;11.50;10.25;;;;;;;;5042953;28;8879;-82
2021/10/29 17:50:12;;;;;;;;;8.50;8.00;;;;;;;;5045875;28;8889;-79
2021/10/29 17:52:39;;;;;;;;;9.50;9.50;;;;;;;;5044017;28;8869;-79
2021/10/29 17:55:12;;;;;;;;;14.25;14.25;;;;;;;;5042994;28;8903;-79
2021/10/29 17:57:40;;;;;;;;;14.25;14.25;;;;;;;;5045772;28;8837;-78
2021/10/29 18:00:09;;;;;;;;;12.33;12.00;;;;;;;;5041274;28;8877;-89
2021/10/29 18:02:36;;;;;;;;;12.00;11.75;;;;;;;;5038615;28;8932;-79
2021/10/29 18:05:04;;;;;;;;;21.00;21.00;;;;;;;;5043802;28;8885;-82
2021/10/29 18:07:33;;;;;;;;;10.00;8.50;;;;;;;;5040874;28;9044;-77
2021/10/29 18:10:01;;;;;;;;;14.75;11.00;;;;;;;;5040419;28;8892;-76
2021/10/29 18:12:30;;;;;;;;;7.00;7.00;;;;;;;;5041360;28;8869;-79
2021/10/29 18:15:00;;;;;;;;;11.00;11.00;;;;;;;;5039799;28;8899;-83
2021/10/29 18:17:28;;;;;;;;;9.25;9.25;;;;;;;;5040606;28;9010;-81
2021/10/29 18:19:57;;;;;;;;;17.33;15.00;;;;;;;;5038294;28;9626;-79
2021/10/29 18:22:25;;;;;;;;;18.33;18.00;;;;;;;;5043468;28;9943;-76
2021/10/29 18:24:53;;;;;;;;;9.75;9.75;;;;;;;;5045166;28;8965;-75
2021/10/29 18:27:23;;;;;;;;;12.50;10.25;;;;;;;;5042049;28;8962;-86
2021/10/29 18:29:56;;;;;;;;;12.75;11.75;;;;;;;;5041952;28;8865;-83
2021/10/29 18:32:23;;;;;;;;;9.25;9.25;;;;;;;;5043018;28;8956;-82
2021/10/29 18:34:51;;;;;;;;;8.00;8.00;;;;;;;;5042416;28;8857;-79
2021/10/29 18:37:20;;;;;;;;;8.00;8.00;;;;;;;;5042480;28;8869;-78
2021/10/29 18:39:49;;;;;;;;;9.50;9.50;;;;;;;;5042404;28;8881;-78
2021/10/29 18:42:17;;;;;;;;;14.75;11.25;;;;;;;;5042553;28;8854;-84
2021/10/29 18:44:44;;;;;;;;;10.75;10.25;;;;;;;;5043383;28;8915;-78
2021/10/29 18:47:16;;;;;;;;;4.25;4.00;;;;;;;;5044900;28;9020;-79
2021/10/29 18:49:46;;;;;;;;;10.75;9.00;;;;;;;;5042740;28;8908;-82
2021/10/29 18:52:16;;;;;;;;;10.00;10.00;;;;;;;;5044209;28;9016;-84
2021/10/29 18:54:44;;;;;;;;;8.25;8.25;;;;;;;;5041110;28;8971;-84
2021/10/29 18:57:12;;;;;;;;;10.75;9.25;;;;;;;;5036092;28;8885;-82
2021/10/29 18:59:40;;;;;;;;;8.75;8.75;;;;;;;;5031951;28;8868;-78
2021/10/29 19:02:14;;;;;;;;;8.00;8.00;;;;;;;;5041578;28;8912;-80
2021/10/29 19:04:52;;;;;;;;;9.00;9.00;;;;;;;;5040251;28;8896;-78
2021/10/29 19:07:23;;;;;;;;;8.00;8.00;;;;;;;;5040445;28;8865;-77
2021/10/29 19:09:51;;;;;;;;;7.75;7.75;;;;;;;;5041116;28;8899;-87
2021/10/29 19:12:18;;;;;;;;;8.00;8.00;;;;;;;;5039056;28;8982;-78
2021/10/29 19:14:47;;;;;;;;;7.75;6.75;;;;;;;;5041210;28;8864;-77
2021/10/29 19:17:22;;;;;;;;;6.25;6.25;;;;;;;;5043631;28;8865;-76
2021/10/29 19:19:51;;;;;;;;;8.00;8.00;;;;;;;;5038416;28;8869;-81